JAL500 RJCC-RJTT
Flight info
| Callsign | JAL500 |
|---|---|
| Flight time | N/A |
| Altitude | 40000 |
| Route | TOBBY Y10 GODIN |
| Aircraft | A359/H-SDE2E3GHIJ3J4J5LM1ORWXY/LB1D1 |
Departure
| Time | N/A |
|---|---|
| Airport | New Chitose Airport (RJCC) |
Arrival
| Time | 2026-04-30 17:59 |
|---|---|
| Airport | Tokyo Haneda International Airport (RJTT) |
| Time | Latitude | Longitude | Altitude | Speed | Heading |
|---|---|---|---|---|---|
| 2026-04-30 17:39 | 36.85670 | 140.38137 | 33008 ft | 405 kts | 202° |
| 2026-04-30 17:41 | 36.63011 | 140.32601 | 26609 ft | 414 kts | 195° |
| 2026-04-30 17:42 | 36.57346 | 140.31533 | 25262 ft | 409 kts | 195° |
| 2026-04-30 17:42 | 36.48938 | 140.29866 | 23188 ft | 406 kts | 195° |
| 2026-04-30 17:43 | 36.43388 | 140.28759 | 21788 ft | 400 kts | 195° |
| 2026-04-30 17:44 | 36.35194 | 140.27230 | 19757 ft | 396 kts | 193° |
| 2026-04-30 17:44 | 36.27008 | 140.25814 | 17572 ft | 395 kts | 191° |
| 2026-04-30 17:46 | 36.13611 | 140.23480 | 13894 ft | 385 kts | 189° |
| 2026-04-30 17:47 | 36.03184 | 140.21667 | 11051 ft | 361 kts | 189° |
| 2026-04-30 17:48 | 35.94222 | 140.20113 | 10494 ft | 291 kts | 189° |
| 2026-04-30 17:48 | 35.88644 | 140.19136 | 10088 ft | 253 kts | 188° |
| 2026-04-30 17:49 | 35.81579 | 140.17916 | 8613 ft | 258 kts | 188° |
| 2026-04-30 17:50 | 35.74517 | 140.16695 | 7153 ft | 255 kts | 187° |
| 2026-04-30 17:51 | 35.69285 | 140.15793 | 6288 ft | 243 kts | 186° |
| 2026-04-30 17:52 | 35.64629 | 140.14988 | 6026 ft | 219 kts | 185° |
| 2026-04-30 17:53 | 35.60453 | 140.08589 | 5162 ft | 247 kts | 266° |
| 2026-04-30 17:54 | 35.60489 | 140.00131 | 3728 ft | 247 kts | 264° |
| 2026-04-30 17:55 | 35.60446 | 139.91763 | 2883 ft | 237 kts | 265° |
| 2026-04-30 17:56 | 35.60371 | 139.84747 | 1864 ft | 184 kts | 263° |
| 2026-04-30 17:57 | 35.59378 | 139.80433 | 730 ft | 166 kts | 235° |
| 2026-04-30 17:58 | 35.56973 | 139.77907 | 121 ft | 140 kts | 216° |
| 2026-04-30 17:59 | 35.55072 | 139.76327 | 31 ft | 22 kts | 195° |
| 2026-04-30 18:00 | 35.54861 | 139.76505 | 28 ft | 12 kts | 70° |
| 2026-04-30 18:00 | 35.54949 | 139.76704 | 29 ft | 2 kts | 105° |
| 2026-04-30 18:01 | 35.54901 | 139.76738 | 29 ft | 0 kts | 150° |